Boynton Beach, FL (33472)

2:20 AM EDT on July 01, 2015 (GMT -0400)
Venetian Isles | | Change Station
CLOSE
Current Station
Personal Weather Station
Location: Boynton Beach, FL
Elevation: 20 ft
Nearby Weather Stations

Elev 20 ft 26.55 °N, 80.18 °W | Updated 0 second ago

Mostly Cloudy
Mostly Cloudy
71.8 °F
Feels Like 70 °F
N
0.0
Wind Variable Wind from ESE
Gusts 0.0 mph

Today
High -- | Low -- °F
--% Chance of Precip.
Yesterday
High -- | Low -- °F
Precip. -- in
6:31 AM 8:17 PM
Waxing Gibbous, 99% visible
Pressure 30.17 in
Visibility 10.0 miles
Clouds Few 2300 ft
Mostly Cloudy 11000 ft
Mostly Cloudy 25000 ft
Heat Index 70 °F
Dew Point 68 °F
Humidity 87%
Rainfall 0.02 in
Snow Depth Not available.
UV 0 out of 12
Pollen 3.50 out of 12
Air Quality Not available.
Flu Activity Not available.
METAR KPBI 010553Z 30003KT 10SM FEW023 BKN110 BKN250 22/21 A3017 RMK AO2 SLP215 60003 T02220206 10294 20222 50001

More Conditions Fewer Conditions

Pressure 30.17 in
Visibility 10.0 miles
Clouds Few 2300 ft
Mostly Cloudy 11000 ft
Mostly Cloudy 25000 ft
Heat Index 70 °F
Dew Point 68 °F
Humidity 87%
Rainfall 0.02 in
Snow Depth Not available.
UV 0 out of 12
Pollen 3.50 out of 12
Air Quality Not available.
Flu Activity Not available.
METAR KPBI 010553Z 30003KT 10SM FEW023 BKN110 BKN250 22/21 A3017 RMK AO2 SLP215 60003 T02220206 10294 20222 50001

More Conditions Fewer Conditions

10-Day Weather Forecast

×

Almanac

Astronomy

Jul. 01, 2015 Rise Set
Actual Time
Civil Twilight
Nautical Twilight
Astronomical Twilight
Moon
Length of Visible Light
Length of Day
Tomorrow will be .
, % of the Moon is Illuminated

Today's Extremes

State Highs State Lows

Community

WunderPhotos

Upload Photos

1,834,156 photos uploaded!

WunderBlogs® & News

Nearby

Air Quality

  Air Quality AQ Index Pollutant
Not available.

Snow Depth

Station Depth Elevation

Earthquake Activity

City Distance Mag. Time & Date
Minimum magnitude displayed is 2.5.

Coastal Water Temperatures

Place Temperature

Stations

Nearby Weather Stations

Station Location Temp. Windchill Dew Point Humidity Wind Precip. Elev Updated Type